Time;durP1;ratioP1;P1;durP2;ratioP2;P2;SDS_P1;SDS_P2;PMS_P1;PMS_P2;Temp;Humidity;BMP_temperature;BMP_pressure;BME280_temperature;BME280_humidity;BME280_pressure;Samples;Min_cycle;Max_cycle;Signal;HPM_P1;HPM_P2
2023/01/07 00:01:23;;;;;;;1.48;0.90;;;;;;;11.20;52.45;101385.69;5017347;28;20538;-71
2023/01/07 00:03:52;;;;;;;1.90;1.10;;;;;;;11.19;52.01;101377.59;5021522;28;20042;-71
2023/01/07 00:06:22;;;;;;;2.28;1.20;;;;;;;11.20;51.67;101376.59;5020912;28;20457;-71
2023/01/07 00:08:51;;;;;;;2.13;1.25;;;;;;;11.20;52.49;101371.13;5019452;28;20057;-71
2023/01/07 00:11:25;;;;;;;1.95;1.00;;;;;;;11.20;52.35;101371.13;5023087;28;20588;-71
2023/01/07 00:13:54;;;;;;;1.17;0.88;;;;;;;11.18;52.54;101365.75;5007153;28;20060;-71
2023/01/07 00:16:26;;;;;;;3.70;1.23;;;;;;;11.19;52.57;101361.16;5014388;28;20521;-71
2023/01/07 00:18:55;;;;;;;2.42;1.35;;;;;;;11.17;52.05;101357.66;5030406;28;20038;-71
2023/01/07 00:21:25;;;;;;;1.55;0.85;;;;;;;11.17;52.34;101361.25;5042328;28;20041;-71
2023/01/07 00:23:54;;;;;;;1.55;1.10;;;;;;;11.18;52.16;101362.13;5043031;28;20118;-71
2023/01/07 00:26:23;;;;;;;1.20;0.98;;;;;;;11.17;52.29;101355.78;5027526;28;20048;-71
2023/01/07 00:28:53;;;;;;;3.63;1.40;;;;;;;11.17;51.90;101350.31;5009113;28;20072;-71
2023/01/07 00:31:23;;;;;;;4.05;2.40;;;;;;;11.17;52.21;101350.31;5044085;28;20034;-71
2023/01/07 00:34:05;;;;;;;3.20;1.80;;;;;;;11.17;52.04;101343.97;5037217;28;20091;-71
2023/01/07 00:36:40;;;;;;;2.15;1.30;;;;;;;11.14;51.87;101356.03;5056734;28;20044;-71
2023/01/07 00:39:12;;;;;;;1.63;1.08;;;;;;;11.16;52.34;101348.56;5048897;28;20461;-71
2023/01/07 00:42:52;;;;;;;1.30;0.80;;;;;;;11.13;52.20;101342.47;5043183;28;20135;-71
2023/01/07 00:44:30;;;;;;;1.52;0.70;;;;;;;11.13;52.13;101345.22;5034635;28;20057;-71
2023/01/07 00:46:58;;;;;;;0.75;0.73;;;;;;;11.15;52.42;101337.72;5049271;28;20043;-71
2023/01/07 00:49:27;;;;;;;1.48;0.70;;;;;;;11.15;51.92;101338.59;5047045;28;20044;-71
2023/01/07 00:51:55;;;;;;;1.15;0.70;;;;;;;11.13;52.21;101337.88;5032709;28;20046;-71
2023/01/07 00:54:24;;;;;;;0.88;0.60;;;;;;;11.14;51.70;101342.34;5030938;28;20045;-71
2023/01/07 00:56:52;;;;;;;0.75;0.70;;;;;;;11.14;51.72;101333.28;5042285;28;20047;-71
2023/01/07 00:59:20;;;;;;;1.23;0.70;;;;;;;11.15;51.77;101332.25;5028187;28;20076;-71
2023/01/07 01:01:48;;;;;;;0.77;0.60;;;;;;;11.14;52.12;101327.78;5014776;28;20053;-71
2023/01/07 01:04:17;;;;;;;1.35;0.80;;;;;;;11.14;51.65;101325.91;5016649;28;20041;-71
2023/01/07 01:06:46;;;;;;;1.17;0.60;;;;;;;11.15;52.03;101324.91;5034868;28;20049;-71
2023/01/07 01:09:14;;;;;;;0.90;0.55;;;;;;;11.14;52.16;101327.78;5041785;28;20033;-71
2023/01/07 01:11:42;;;;;;;0.82;0.60;;;;;;;11.13;51.80;101318.69;5050807;28;20036;-71
2023/01/07 01:14:11;;;;;;;1.10;0.68;;;;;;;11.14;52.01;101320.41;5046898;28;20049;-71
2023/01/07 01:16:39;;;;;;;1.10;0.70;;;;;;;11.14;51.75;101316.84;5041231;28;20481;-71
2023/01/07 01:19:07;;;;;;;1.35;0.60;;;;;;;11.14;51.98;101316.84;5050137;28;20498;-72
2023/01/07 01:21:35;;;;;;;1.80;0.77;;;;;;;11.14;51.58;101308.63;5035707;28;20066;-71
2023/01/07 01:24:04;;;;;;;0.80;0.70;;;;;;;11.15;51.66;101316.69;5051251;28;20048;-71
2023/01/07 01:26:32;;;;;;;1.00;0.68;;;;;;;11.13;51.53;101305.00;5033370;28;20056;-71
2023/01/07 01:29:00;;;;;;;0.75;0.70;;;;;;;11.12;51.65;101311.47;5029315;28;20391;-71
2023/01/07 01:31:31;;;;;;;1.13;0.70;;;;;;;11.13;51.47;101306.88;5042448;28;20046;-71
2023/01/07 01:33:59;;;;;;;1.52;0.80;;;;;;;11.13;51.48;101313.22;5026127;28;20047;-71
2023/01/07 01:36:27;;;;;;;0.90;0.60;;;;;;;11.12;51.58;101308.75;5040379;28;20381;-72
2023/01/07 01:38:58;;;;;;;0.70;0.60;;;;;;;11.10;51.47;101313.47;5024442;28;20136;-71
2023/01/07 01:41:31;;;;;;;0.80;0.60;;;;;;;11.12;51.79;101308.75;5041573;28;20417;-71
2023/01/07 01:44:00;;;;;;;1.00;0.70;;;;;;;11.11;51.95;101304.25;5020936;28;20144;-71
2023/01/07 01:46:34;;;;;;;1.92;0.73;;;;;;;11.13;51.31;101312.34;5016425;28;20386;-71
2023/01/07 01:49:10;;;;;;;0.75;0.60;;;;;;;11.12;51.45;101302.38;5028481;28;20355;-71
2023/01/07 01:51:41;;;;;;;0.60;0.50;;;;;;;11.11;51.38;101301.50;5049072;28;20033;-71
2023/01/07 01:54:14;;;;;;;0.88;0.80;;;;;;;11.12;51.49;101305.13;5021721;28;20533;-71
2023/01/07 01:56:52;;;;;;;1.08;0.80;;;;;;;11.12;51.81;101302.38;5029969;28;20064;-71
2023/01/07 01:59:24;;;;;;;1.13;0.70;;;;;;;11.12;51.39;101302.38;5029213;28;20509;-72
2023/01/07 02:01:54;;;;;;;1.30;0.70;;;;;;;11.09;51.54;101295.28;5026948;28;20048;-72
2023/01/07 02:04:24;;;;;;;0.90;0.70;;;;;;;11.11;51.86;101289.69;5030359;28;20525;-71
2023/01/07 02:06:58;;;;;;;1.02;0.65;;;;;;;11.12;51.54;101296.91;5016937;28;20152;-71
2023/01/07 02:09:28;;;;;;;0.73;0.70;;;;;;;11.08;51.36;101290.81;5020749;28;20133;-71
2023/01/07 02:12:07;;;;;;;1.42;0.73;;;;;;;11.11;51.65;101296.03;5024518;28;20041;-72
2023/01/07 02:15:10;;;;;;;0.70;0.60;;;;;;;11.10;51.26;101285.19;5017841;28;20049;-72
2023/01/07 02:17:52;;;;;;;0.77;0.60;;;;;;;11.08;51.23;101282.59;5012908;28;20055;-71
2023/01/07 02:20:37;;;;;;;0.80;0.60;;;;;;;11.08;51.35;101281.72;5042680;28;20332;-72
2023/01/07 02:24:02;;;;;;;1.48;0.60;;;;;;;11.02;51.56;101279.50;5043579;28;20365;-71
2023/01/07 02:27:03;;;;;;;1.05;0.65;;;;;;;11.06;51.44;101290.06;5037297;28;20037;-71
2023/01/07 02:30:06;;;;;;;1.27;0.60;;;;;;;11.04;51.13;101283.84;5014426;28;20455;-71
2023/01/07 02:33:11;;;;;;;0.93;0.60;;;;;;;11.05;51.16;101285.59;5027881;28;20132;-71
2023/01/07 02:35:55;;;;;;;1.25;0.52;;;;;;;11.06;51.09;101287.31;5021066;28;20494;-72
2023/01/07 02:38:33;;;;;;;1.10;0.60;;;;;;;11.06;51.54;101281.00;5023481;28;20050;-72
2023/01/07 02:41:10;;;;;;;0.95;0.60;;;;;;;11.07;51.10;101293.66;5032337;28;20045;-71
2023/01/07 02:43:44;;;;;;;0.63;0.60;;;;;;;11.06;51.32;101279.09;5024641;28;20053;-72
2023/01/07 02:46:21;;;;;;;1.42;0.70;;;;;;;11.06;51.46;101272.78;5021398;28;20142;-71
2023/01/07 02:48:51;;;;;;;1.45;0.80;;;;;;;11.04;51.30;101275.63;5027079;28;20041;-72
2023/01/07 02:51:20;;;;;;;1.38;0.57;;;;;;;11.04;51.29;101272.91;5023480;28;20045;-72
2023/01/07 02:53:48;;;;;;;0.70;0.60;;;;;;;11.04;51.50;101269.28;5018512;28;20068;-72
2023/01/07 02:56:27;;;;;;;0.95;0.60;;;;;;;11.06;51.63;101270.88;5022959;28;20045;-71
2023/01/07 02:59:18;;;;;;;0.82;0.70;;;;;;;11.04;51.53;101270.16;5020364;28;20382;-71
2023/01/07 03:02:12;;;;;;;0.88;0.70;;;;;;;11.04;51.12;101259.19;5023498;28;20494;-72
2023/01/07 03:04:59;;;;;;;1.30;0.77;;;;;;;11.04;51.32;101264.69;5008973;28;20465;-72
2023/01/07 03:07:41;;;;;;;0.70;0.50;;;;;;;11.06;51.42;101261.81;4992170;28;20065;-68
2023/01/07 03:10:20;;;;;;;1.55;0.90;;;;;;;11.05;51.39;101269.16;4975196;28;20039;-68
2023/01/07 03:12:54;;;;;;;1.02;0.65;;;;;;;11.05;51.50;101258.22;4984224;28;20046;-68
2023/01/07 03:15:28;;;;;;;1.45;0.80;;;;;;;11.07;51.04;101252.56;4983838;28;20038;-68
2023/01/07 03:18:01;;;;;;;1.48;0.85;;;;;;;11.08;50.94;101249.72;4984075;28;20148;-68
2023/01/07 03:20:34;;;;;;;0.80;0.80;;;;;;;11.08;51.21;101246.97;5003197;28;20046;-68
2023/01/07 03:23:06;;;;;;;1.42;0.93;;;;;;;11.06;51.09;101245.38;5003675;28;20735;-68
2023/01/07 03:25:39;;;;;;;1.15;0.95;;;;;;;11.05;51.40;101244.50;4987130;28;20046;-68
2023/01/07 03:28:10;;;;;;;1.75;0.90;;;;;;;11.05;51.16;101243.63;5004446;28;20073;-68
2023/01/07 03:30:38;;;;;;;3.45;1.02;;;;;;;11.06;51.32;101242.66;4984942;28;20081;-68
2023/01/07 03:33:12;;;;;;;2.33;1.13;;;;;;;11.08;51.27;101237.88;4985477;28;20049;-68
2023/01/07 03:35:45;;;;;;;1.92;1.00;;;;;;;11.06;51.01;101229.78;4984996;28;20034;-68
2023/01/07 03:38:13;;;;;;;;;;;;;;;10.77;52.04;101232.22;5001119;28;20076;-68
2023/01/07 03:40:41;;;;;;;1.83;1.00;;;;;;;10.99;51.64;101229.44;4987650;28;20220;-68
2023/01/07 03:43:11;;;;;;;2.25;1.10;;;;;;;11.03;51.25;101227.31;4985124;28;20911;-68
2023/01/07 03:45:40;;;;;;;1.75;1.30;;;;;;;11.01;51.04;101232.06;4978204;28;20035;-68
2023/01/07 03:48:08;;;;;;;1.50;0.90;;;;;;;10.98;50.85;101222.22;4980831;28;20080;-68
2023/01/07 03:50:38;;;;;;;1.77;1.00;;;;;;;10.96;51.30;101216.03;4979320;28;20459;-68
2023/01/07 03:53:08;;;;;;;1.75;0.90;;;;;;;10.96;51.42;101223.38;4981848;28;20084;-68
2023/01/07 03:55:37;;;;;;;1.88;1.35;;;;;;;10.95;50.95;101224.34;4992317;28;20069;-68
2023/01/07 03:58:05;;;;;;;2.17;1.02;;;;;;;10.93;51.33;101212.66;4999799;28;20136;-68
2023/01/07 04:00:33;;;;;;;2.88;1.15;;;;;;;10.91;50.79;101210.03;4998997;28;20088;-68
2023/01/07 04:03:11;;;;;;;2.80;1.10;;;;;;;10.88;51.06;101202.09;4984300;28;20046;-68
2023/01/07 04:05:42;;;;;;;2.20;1.05;;;;;;;10.88;51.35;101206.72;4994964;28;20046;-67
2023/01/07 04:08:12;;;;;;;1.70;1.08;;;;;;;10.86;50.76;101204.09;4987637;28;20049;-68
2023/01/07 04:10:41;;;;;;;2.25;1.10;;;;;;;10.84;51.17;101203.34;4994035;28;20046;-68
2023/01/07 04:13:11;;;;;;;1.55;0.90;;;;;;;10.82;51.22;101196.25;4980602;28;20392;-68
2023/01/07 04:15:43;;;;;;;1.30;0.98;;;;;;;10.80;51.36;101196.41;4990942;28;20457;-68
2023/01/07 04:18:11;;;;;;;1.65;1.00;;;;;;;10.79;50.81;101193.78;4985236;28;20054;-68
2023/01/07 04:20:39;;;;;;;2.28;1.08;;;;;;;10.77;50.77;101190.28;4984105;28;20076;-68
2023/01/07 04:23:07;;;;;;;2.33;1.10;;;;;;;10.76;51.11;101192.16;5004215;28;20132;-68
2023/01/07 04:25:36;;;;;;;2.22;0.90;;;;;;;10.76;51.42;101191.28;5004496;28;20046;-68
2023/01/07 04:28:08;;;;;;;2.20;1.10;;;;;;;10.71;51.36;101185.34;5002951;28;20065;-68
2023/01/07 04:30:37;;;;;;;1.35;1.00;;;;;;;10.73;51.44;101188.81;5003354;28;20081;-68
2023/01/07 04:33:05;;;;;;;2.28;1.13;;;;;;;10.70;51.19;101181.72;4986867;28;20057;-68
2023/01/07 04:35:33;;;;;;;2.10;1.30;;;;;;;10.69;51.31;101182.72;4986524;28;20494;-68
2023/01/07 04:38:02;;;;;;;2.17;1.00;;;;;;;10.68;51.08;101175.50;5001088;28;20543;-68
2023/01/07 04:40:30;;;;;;;2.33;1.25;;;;;;;10.68;51.17;101177.38;4990952;28;20132;-68
2023/01/07 04:43:01;;;;;;;1.35;1.08;;;;;;;10.68;51.54;101164.56;4978387;28;20042;-68
2023/01/07 04:45:30;;;;;;;1.48;0.98;;;;;;;10.65;51.03;101162.06;4986059;28;20053;-68
2023/01/07 04:48:00;;;;;;;1.80;1.10;;;;;;;10.65;51.45;101159.31;4983759;28;20163;-68
2023/01/07 04:50:28;;;;;;;1.65;1.05;;;;;;;10.65;51.26;101147.53;4998917;28;20050;-68
2023/01/07 04:52:57;;;;;;;1.70;1.00;;;;;;;10.63;50.93;101150.38;4986793;28;20045;-68
2023/01/07 04:55:25;;;;;;;1.55;0.95;;;;;;;10.62;51.01;101148.66;4986834;28;20565;-68
2023/01/07 04:57:53;;;;;;;2.30;1.30;;;;;;;10.62;51.30;101140.44;5000976;28;20133;-67
2023/01/07 05:00:23;;;;;;;2.35;1.30;;;;;;;10.62;51.22;101139.56;4980080;28;20050;-68
2023/01/07 05:02:53;;;;;;;1.65;1.02;;;;;;;10.59;51.03;101137.94;4986743;28;20037;-68
2023/01/07 05:05:21;;;;;;;1.65;1.10;;;;;;;10.58;51.21;101139.81;4990965;28;20054;-68
2023/01/07 05:07:49;;;;;;;1.90;1.20;;;;;;;10.58;51.58;101136.19;4980932;28;20042;-68
2023/01/07 05:10:18;;;;;;;2.08;1.30;;;;;;;10.57;51.25;101132.59;4979041;28;20046;-68
2023/01/07 05:12:47;;;;;;;2.15;1.25;;;;;;;10.55;51.18;101123.66;4986257;28;20519;-68
2023/01/07 05:15:17;;;;;;;1.75;1.00;;;;;;;10.56;50.95;101124.53;4986735;28;20129;-68
2023/01/07 05:17:47;;;;;;;1.98;1.20;;;;;;;10.57;51.14;101120.78;4989907;28;20073;-68
2023/01/07 05:20:15;;;;;;;2.30;1.42;;;;;;;10.55;51.51;101122.78;5004275;28;20073;-68
2023/01/07 05:22:43;;;;;;;2.95;1.33;;;;;;;10.54;51.03;101121.03;5005820;28;20042;-68
2023/01/07 05:25:11;;;;;;;2.42;1.42;;;;;;;10.54;51.24;101118.31;4989877;28;20038;-68
2023/01/07 05:27:39;;;;;;;1.85;1.10;;;;;;;10.55;51.14;101120.94;4987981;28;20133;-68
2023/01/07 05:30:10;;;;;;;2.17;1.23;;;;;;;10.55;51.25;101111.84;4986646;28;20499;-68
2023/01/07 05:32:38;;;;;;;2.55;1.40;;;;;;;10.54;51.13;101110.09;5007339;28;20161;-68
2023/01/07 05:35:08;;;;;;;2.25;1.20;;;;;;;10.55;51.52;101112.72;4988168;28;20034;-68
2023/01/07 05:37:36;;;;;;;1.80;1.10;;;;;;;10.55;51.43;101103.63;4985743;28;20133;-68
2023/01/07 05:40:06;;;;;;;2.15;1.10;;;;;;;10.55;51.23;101109.09;4986564;28;20045;-68
2023/01/07 05:42:34;;;;;;;1.85;1.10;;;;;;;10.55;51.31;101109.09;4990388;28;20092;-68
2023/01/07 05:45:02;;;;;;;2.03;1.25;;;;;;;10.55;50.90;101109.09;4988507;28;20052;-68
2023/01/07 05:47:30;;;;;;;1.90;1.08;;;;;;;10.55;51.41;101104.50;5006955;28;20117;-68
2023/01/07 05:49:58;;;;;;;2.17;1.10;;;;;;;10.55;51.26;101099.03;4982620;28;20053;-68
2023/01/07 05:52:27;;;;;;;2.40;1.20;;;;;;;10.57;51.29;101098.88;5006768;28;20038;-68
2023/01/07 05:54:55;;;;;;;1.60;1.00;;;;;;;10.55;51.44;101096.28;5006635;28;20050;-68
2023/01/07 05:57:23;;;;;;;1.35;1.10;;;;;;;10.56;50.98;101094.44;5007878;28;20061;-68
2023/01/07 05:59:50;;;;;;;2.45;1.20;;;;;;;10.57;51.15;101099.75;4983745;28;20049;-68
2023/01/07 06:02:18;;;;;;;1.67;1.10;;;;;;;10.58;50.67;101104.22;5001485;28;20048;-68
2023/01/07 06:04:46;;;;;;;2.10;1.50;;;;;;;10.58;50.66;101093.28;4995865;28;20050;-68
2023/01/07 06:07:14;;;;;;;2.08;1.13;;;;;;;10.59;51.00;101097.75;5006728;28;20042;-68
2023/01/07 06:09:43;;;;;;;2.42;1.02;;;;;;;10.61;50.87;101094.91;5006624;28;20056;-68
2023/01/07 06:12:11;;;;;;;1.50;0.98;;;;;;;10.60;51.18;101087.69;5006069;28;20068;-68
2023/01/07 06:14:39;;;;;;;1.20;0.90;;;;;;;10.61;51.19;101097.63;5002746;28;20057;-68
2023/01/07 06:17:07;;;;;;;1.77;0.82;;;;;;;10.62;51.08;101091.16;4988048;28;20128;-68
2023/01/07 06:19:34;;;;;;;1.58;1.00;;;;;;;10.62;50.59;101091.16;5000280;28;20038;-68
2023/01/07 06:22:02;;;;;;;2.55;1.00;;;;;;;10.64;51.10;101085.56;5006060;28;20053;-68
2023/01/07 06:24:30;;;;;;;1.90;1.20;;;;;;;10.63;50.63;101081.09;4987524;28;20053;-68
2023/01/07 06:26:59;;;;;;;3.10;1.10;;;;;;;10.65;50.84;101081.84;5006493;28;20056;-68
2023/01/07 06:29:27;;;;;;;1.98;1.00;;;;;;;10.65;50.96;101079.09;5001591;28;20042;-68
2023/01/07 06:31:55;;;;;;;1.52;0.90;;;;;;;10.65;50.77;101085.41;5006308;28;20042;-68
2023/01/07 06:34:23;;;;;;;1.80;0.98;;;;;;;10.66;50.27;101078.06;5002627;28;20534;-68
2023/01/07 06:36:50;;;;;;;1.90;1.13;;;;;;;10.66;50.91;101081.69;5005626;28;20054;-68
2023/01/07 06:39:18;;;;;;;1.92;1.02;;;;;;;10.67;50.68;101071.59;5006247;28;20514;-68
2023/01/07 06:41:46;;;;;;;1.77;1.10;;;;;;;10.68;50.40;101071.47;5006886;28;20049;-68
2023/01/07 06:44:15;;;;;;;2.75;1.10;;;;;;;10.70;50.47;101065.88;5002816;28;20049;-68
2023/01/07 06:46:43;;;;;;;2.38;1.30;;;;;;;10.69;50.84;101072.34;5004383;28;20104;-67
2023/01/07 06:49:11;;;;;;;1.80;1.20;;;;;;;10.70;50.66;101071.34;5000262;28;20042;-68
2023/01/07 06:51:39;;;;;;;2.70;1.30;;;;;;;10.70;50.75;101063.16;5006731;28;20049;-68
2023/01/07 06:54:07;;;;;;;1.83;1.13;;;;;;;10.71;50.21;101063.03;5007404;28;20120;-68
2023/01/07 06:56:35;;;;;;;2.65;1.50;;;;;;;10.71;50.46;101056.69;5002879;28;20053;-68
2023/01/07 06:59:02;;;;;;;2.13;1.17;;;;;;;10.72;50.56;101052.94;4989516;28;20533;-68
2023/01/07 07:01:32;;;;;;;1.98;1.40;;;;;;;10.73;50.20;101055.53;5003641;28;20541;-68
2023/01/07 07:04:00;;;;;;;2.40;1.40;;;;;;;10.73;50.51;101060.16;5007332;28;20515;-68
2023/01/07 07:06:27;;;;;;;2.67;1.27;;;;;;;10.72;50.42;101045.59;5004819;28;20567;-68
2023/01/07 07:08:55;;;;;;;2.22;1.23;;;;;;;10.73;49.88;101050.06;5006781;28;20045;-67
2023/01/07 07:11:23;;;;;;;2.22;1.20;;;;;;;10.73;50.15;101036.38;4983149;28;20050;-67
2023/01/07 07:13:51;;;;;;;2.05;1.40;;;;;;;10.74;50.40;101037.22;5001228;28;20057;-68
2023/01/07 07:16:21;;;;;;;2.28;1.10;;;;;;;10.74;50.18;101032.63;5000420;28;20042;-68
2023/01/07 07:18:50;;;;;;;1.92;1.08;;;;;;;10.76;49.85;101032.50;5004952;28;20038;-67
2023/01/07 07:21:18;;;;;;;2.00;1.15;;;;;;;10.75;50.10;101036.25;5001577;28;20034;-67
2023/01/07 07:23:46;;;;;;;2.40;1.20;;;;;;;10.75;50.20;101034.38;5005012;28;20057;-68
2023/01/07 07:26:14;;;;;;;1.30;0.90;;;;;;;10.76;50.27;101037.97;5002049;28;20514;-67
2023/01/07 07:28:42;;;;;;;2.00;1.10;;;;;;;10.77;50.32;101045.19;4989780;28;20041;-67
2023/01/07 07:31:10;;;;;;;1.77;1.13;;;;;;;10.77;50.09;101039.72;5000976;28;20050;-67
2023/01/07 07:33:38;;;;;;;1.63;1.00;;;;;;;10.78;50.14;101044.19;4999917;28;20507;-68
2023/01/07 07:36:08;;;;;;;2.08;1.20;;;;;;;10.79;50.08;101035.00;5001792;28;20058;-67
2023/01/07 07:38:35;;;;;;;1.15;1.02;;;;;;;10.76;49.94;101036.13;5005919;28;20668;-67
2023/01/07 07:41:03;;;;;;;1.95;1.52;;;;;;;10.76;50.11;101027.91;5003160;28;20507;-67
2023/01/07 07:43:31;;;;;;;2.25;1.00;;;;;;;10.77;49.98;101034.25;5000523;28;20522;-67
2023/01/07 07:45:59;;;;;;;1.77;1.10;;;;;;;10.76;50.09;101030.63;4998158;28;20060;-68
2023/01/07 07:48:27;;;;;;;1.67;1.00;;;;;;;10.76;50.03;101027.03;5003737;28;20061;-67
2023/01/07 07:50:55;;;;;;;1.42;0.95;;;;;;;10.75;50.23;101023.41;4998128;28;20053;-67
2023/01/07 07:53:24;;;;;;;1.88;1.00;;;;;;;10.77;50.00;101026.03;5004407;28;20053;-67
2023/01/07 07:55:52;;;;;;;1.92;1.00;;;;;;;10.75;50.08;101025.28;5000363;28;20054;-68
2023/01/07 07:58:21;;;;;;;1.70;1.08;;;;;;;10.74;49.66;101018.94;4996981;28;20050;-67
2023/01/07 08:00:48;;;;;;;1.58;0.90;;;;;;;10.74;49.93;101024.41;4997544;28;20038;-68
2023/01/07 08:03:16;;;;;;;1.55;0.93;;;;;;;10.73;49.40;101021.84;5004186;28;20050;-68
2023/01/07 08:05:45;;;;;;;1.95;1.05;;;;;;;10.73;49.76;101017.19;5002362;28;20406;-68
2023/01/07 08:08:14;;;;;;;1.33;0.93;;;;;;;10.74;49.83;101009.84;5004445;28;20046;-68
2023/01/07 08:10:44;;;;;;;2.25;1.23;;;;;;;10.75;49.38;101015.22;5001616;28;20067;-68
2023/01/07 08:13:12;;;;;;;1.50;0.90;;;;;;;10.73;49.41;101013.63;5000460;28;20049;-67
2023/01/07 08:15:40;;;;;;;1.98;1.10;;;;;;;10.74;49.67;101009.84;4999857;28;20533;-67
2023/01/07 08:18:09;;;;;;;1.02;0.88;;;;;;;10.74;49.18;101015.34;4986296;28;20045;-67
2023/01/07 08:20:38;;;;;;;1.98;0.98;;;;;;;10.74;49.80;101013.47;5001088;28;20488;-68
2023/01/07 08:23:07;;;;;;;2.25;0.93;;;;;;;10.74;49.67;101007.13;5005385;28;20046;-68
2023/01/07 08:25:35;;;;;;;2.40;1.10;;;;;;;10.74;49.53;101010.72;5003158;28;20073;-68
2023/01/07 08:28:05;;;;;;;1.58;1.10;;;;;;;10.75;49.92;101009.72;4996545;28;20514;-68
2023/01/07 08:30:33;;;;;;;2.72;1.08;;;;;;;10.74;49.35;101008.00;5000396;28;20092;-67
2023/01/07 08:33:04;;;;;;;2.03;1.00;;;;;;;10.76;49.34;101002.38;5002603;28;20521;-68
2023/01/07 08:35:32;;;;;;;1.90;1.00;;;;;;;10.76;49.99;101007.88;4996900;28;20348;-67
2023/01/07 08:38:04;;;;;;;2.97;1.00;;;;;;;10.78;49.64;101008.59;5004204;28;20041;-67
2023/01/07 08:40:32;;;;;;;2.38;1.17;;;;;;;10.74;50.01;100999.78;4999822;28;20069;-67
2023/01/07 08:43:01;;;;;;;3.20;1.20;;;;;;;10.76;49.48;100994.19;5003880;28;20038;-67
2023/01/07 08:45:31;;;;;;;2.38;0.98;;;;;;;10.79;49.41;100988.44;4997208;28;20046;-67
2023/01/07 08:47:59;;;;;;;2.70;1.30;;;;;;;10.76;49.37;100981.34;5006211;28;20034;-67
2023/01/07 08:50:30;;;;;;;2.50;1.20;;;;;;;10.78;49.26;100981.22;5007827;28;20046;-67
2023/01/07 08:52:58;;;;;;;1.92;1.05;;;;;;;10.77;49.23;100974.03;5007890;28;20121;-67
2023/01/07 08:55:26;;;;;;;1.67;1.00;;;;;;;10.77;49.23;100980.38;5002131;28;20050;-67
2023/01/07 08:57:54;;;;;;;2.17;1.02;;;;;;;10.76;49.52;100975.88;5006956;28;20084;-67
2023/01/07 09:00:22;;;;;;;1.70;0.90;;;;;;;10.77;49.17;100980.38;4986303;28;20145;-67
2023/01/07 09:02:52;;;;;;;1.70;0.98;;;;;;;10.77;49.59;100972.16;4989214;28;20137;-67
2023/01/07 09:05:19;;;;;;;1.67;1.00;;;;;;;10.76;49.40;100977.75;5020877;22;20049;-71
2023/01/07 09:07:52;;;;;;;2.58;1.10;;;;;;;10.77;49.46;100977.63;5025039;28;20667;-72
2023/01/07 09:10:20;;;;;;;1.90;1.10;;;;;;;10.73;49.91;100967.94;5017578;28;20053;-72
2023/01/07 09:12:48;;;;;;;2.13;0.95;;;;;;;10.75;49.49;100963.19;5005369;28;20470;-72
2023/01/07 09:15:17;;;;;;;2.42;1.08;;;;;;;10.75;49.58;100970.53;5005876;28;20121;-72
2023/01/07 09:17:44;;;;;;;2.25;1.05;;;;;;;10.74;49.38;100958.72;5008204;28;20446;-72
2023/01/07 09:20:14;;;;;;;1.98;1.10;;;;;;;10.76;49.55;100961.31;5001488;28;20068;-72
2023/01/07 09:22:42;;;;;;;2.70;1.30;;;;;;;10.74;49.66;100958.72;4995588;28;20052;-71
2023/01/07 09:25:10;;;;;;;2.65;1.40;;;;;;;10.76;49.26;100955.84;4995821;28;20085;-71
2023/01/07 09:27:38;;;;;;;2.20;1.13;;;;;;;10.75;49.31;100963.19;5004777;28;20047;-74
2023/01/07 09:30:08;;;;;;;1.88;1.13;;;;;;;10.77;49.30;100961.19;5006596;28;20046;-72
2023/01/07 09:32:36;;;;;;;2.20;1.10;;;;;;;10.76;49.51;100953.13;4996209;28;20049;-72
2023/01/07 09:35:04;;;;;;;2.33;1.20;;;;;;;10.77;49.31;100954.84;4998553;28;20243;-73
2023/01/07 09:37:33;;;;;;;2.28;1.17;;;;;;;10.79;49.66;100947.38;5004161;28;20045;-73
2023/01/07 09:40:01;;;;;;;1.85;1.00;;;;;;;10.78;49.40;100946.50;4993091;28;20081;-73
2023/01/07 09:42:37;;;;;;;3.03;1.17;;;;;;;10.80;48.83;100943.66;5011769;28;20042;-73
2023/01/07 09:45:15;;;;;;;2.35;1.10;;;;;;;10.81;48.64;100943.50;5004734;28;20054;-72
2023/01/07 09:47:47;;;;;;;1.75;1.10;;;;;;;10.82;49.08;100955.31;4985799;28;20474;-73
2023/01/07 09:50:24;;;;;;;2.20;1.20;;;;;;;10.84;49.08;100937.75;4998414;28;20101;-72
2023/01/07 09:52:57;;;;;;;2.10;1.00;;;;;;;10.87;49.59;100934.75;5006201;28;20046;-73
2023/01/07 09:55:28;;;;;;;;;;;;;;;10.65;50.00;100934.88;5003036;28;20050;-61
2023/01/07 09:57:56;;;;;;;1.25;0.90;;;;;;;10.93;50.22;100933.34;4998406;28;19994;-62
2023/01/07 10:00:25;;;;;;;1.77;1.02;;;;;;;11.05;50.01;100926.81;4999851;28;20664;-61
2023/01/07 10:03:09;;;;;;;2.28;1.23;;;;;;;11.15;49.55;100924.09;4998795;28;20074;-61
2023/01/07 10:05:46;;;;;;;2.35;1.10;;;;;;;11.23;49.78;100927.00;4994496;28;20502;-59
2023/01/07 10:08:26;;;;;;;1.88;1.10;;;;;;;11.32;49.43;100916.09;5001799;28;20077;-61
2023/01/07 10:11:00;;;;;;;;;;;;;;;11.12;50.36;100921.63;5007225;28;20046;-73
2023/01/07 10:13:49;;;;;;;2.78;1.10;;;;;;;11.49;49.32;100900.00;4994493;28;19921;-72
2023/01/07 10:16:23;;;;;;;2.40;1.20;;;;;;;11.63;49.78;100903.28;5000899;28;20120;-72
2023/01/07 10:19:02;;;;;;;2.08;1.25;;;;;;;11.76;48.96;100893.91;5006336;28;20100;-72
2023/01/07 10:21:40;;;;;;;2.65;1.33;;;;;;;11.86;48.47;100894.81;5004726;28;20084;-72
2023/01/07 10:24:18;;;;;;;2.53;1.30;;;;;;;11.94;48.66;100887.59;4994349;28;20046;-72
2023/01/07 10:26:52;;;;;;;2.45;1.27;;;;;;;12.02;49.33;100881.41;4992399;28;20100;-72
2023/01/07 10:29:27;;;;;;;2.13;1.20;;;;;;;12.10;48.86;100887.91;4977447;28;20041;-72
2023/01/07 10:31:58;;;;;;;2.80;1.30;;;;;;;12.16;48.45;100877.34;4986068;28;20058;-72
2023/01/07 10:34:34;;;;;;;3.72;1.80;;;;;;;12.22;47.68;100871.28;4995983;28;20038;-72
2023/01/07 10:37:06;;;;;;;2.53;1.40;;;;;;;12.30;47.25;100863.19;4987348;28;20080;-72
2023/01/07 10:39:51;;;;;;;2.78;1.40;;;;;;;12.34;46.86;100856.41;4996007;28;20069;-73
2023/01/07 10:42:25;;;;;;;2.92;1.60;;;;;;;12.40;46.96;100861.31;5004190;28;20046;-73
2023/01/07 10:45:23;;;;;;;2.60;1.58;;;;;;;12.41;45.10;100852.06;5001201;28;20108;-73
2023/01/07 10:48:11;;;;;;;2.90;1.60;;;;;;;12.48;46.20;100839.47;4999763;28;20131;-72
2023/01/07 10:50:52;;;;;;;2.95;1.75;;;;;;;12.52;46.01;100840.94;4998253;28;20038;-73
2023/01/07 10:53:32;;;;;;;3.65;1.67;;;;;;;12.54;46.37;100833.41;4997165;28;20606;-61
2023/01/07 10:56:12;;;;;;;3.00;1.60;;;;;;;12.57;46.83;100822.13;4995089;28;20068;-63
2023/01/07 10:58:43;;;;;;;2.53;1.52;;;;;;;12.58;47.44;100818.38;4998003;28;20113;-74
2023/01/07 11:01:18;;;;;;;3.03;1.75;;;;;;;12.63;46.85;100810.56;4999053;28;20046;-72
2023/01/07 11:03:50;;;;;;;3.40;1.80;;;;;;;12.64;46.26;100815.06;5003680;28;20092;-72
2023/01/07 11:06:26;;;;;;;3.65;1.80;;;;;;;12.65;46.34;100805.81;5000846;28;20130;-70
2023/01/07 11:08:54;;;;;;;3.13;1.70;;;;;;;12.65;46.86;100794.81;5004908;28;20061;-70
2023/01/07 11:11:24;;;;;;;2.65;1.70;;;;;;;12.67;46.51;100792.78;5000650;28;20035;-71
2023/01/07 11:13:58;;;;;;;3.15;1.80;;;;;;;12.67;45.15;100784.56;4998654;28;20037;-73
2023/01/07 11:16:29;;;;;;;3.22;1.85;;;;;;;12.66;45.95;100793.81;4996931;28;20566;-72
2023/01/07 11:19:03;;;;;;;2.90;1.80;;;;;;;12.64;45.58;100790.34;4994796;28;20038;-72
2023/01/07 11:21:33;;;;;;;2.83;1.88;;;;;;;12.62;45.70;100784.16;5005216;28;20384;-73
2023/01/07 11:24:31;;;;;;;2.58;1.75;;;;;;;12.58;44.33;100790.03;5000665;28;20080;-72
2023/01/07 11:27:04;;;;;;;2.90;2.17;;;;;;;12.56;45.37;100778.34;4985043;28;20514;-71
2023/01/07 11:29:37;;;;;;;2.40;1.52;;;;;;;12.52;44.97;100758.56;4987480;28;20077;-71
2023/01/07 11:32:10;;;;;;;4.78;2.42;;;;;;;12.48;45.19;100747.00;4983348;28;20042;-72
2023/01/07 11:34:51;;;;;;;4.15;1.88;;;;;;;12.47;43.75;100737.03;4989300;28;20501;-72
2023/01/07 11:37:32;;;;;;;3.17;1.83;;;;;;;12.43;43.88;100740.25;5003166;28;20092;-72
2023/01/07 11:40:02;;;;;;;2.47;1.60;;;;;;;12.38;45.07;100721.47;5001610;28;20136;-72
2023/01/07 11:42:40;;;;;;;2.97;1.83;;;;;;;12.34;44.65;100722.81;5002495;28;20596;-72
2023/01/07 11:45:13;;;;;;;2.85;1.80;;;;;;;12.31;44.78;100705.75;4991571;28;20077;-71
2023/01/07 11:47:47;;;;;;;2.85;1.83;;;;;;;12.29;44.06;100716.03;5000639;28;20038;-72